Time;durP1;ratioP1;P1;durP2;ratioP2;P2;SDS_P1;SDS_P2;PMS_P1;PMS_P2;Temp;Humidity;BMP_temperature;BMP_pressure;BME280_temperature;BME280_humidity;BME280_pressure;Samples;Min_cycle;Max_cycle;Signal;HPM_P1;HPM_P2
2022/12/01 00:02:12;;;;;;;84.97;31.65;;;6.10;99.90;;;;;;5031951;28;20026;-69
2022/12/01 00:04:38;;;;;;;76.43;32.35;;;6.20;99.90;;;;;;5032517;28;20025;-69
2022/12/01 00:07:03;;;;;;;74.13;30.67;;;6.20;99.90;;;;;;5035540;28;20132;-69
2022/12/01 00:12:13;;;;;;;80.93;31.85;;;6.30;99.90;;;;;;5034819;28;20121;-67
2022/12/01 00:14:39;;;;;;;79.55;32.70;;;6.30;99.90;;;;;;5030404;28;20116;-68
2022/12/01 00:17:04;;;;;;;74.47;29.88;;;6.30;99.90;;;;;;5015844;28;20109;-67
2022/12/01 00:19:30;;;;;;;75.65;30.17;;;6.30;99.90;;;;;;5026733;28;20152;-70
2022/12/01 00:21:56;;;;;;;72.10;30.35;;;6.20;99.90;;;;;;5044166;28;20033;-68
2022/12/01 00:24:22;;;;;;;75.15;31.90;;;6.20;99.90;;;;;;5035381;28;20037;-68
2022/12/01 00:26:48;;;;;;;82.70;30.90;;;6.20;99.90;;;;;;5053121;28;20017;-68
2022/12/01 00:29:14;;;;;;;74.97;29.00;;;6.10;99.90;;;;;;5055278;28;20346;-69
2022/12/01 00:31:40;;;;;;;78.32;28.00;;;6.00;99.90;;;;;;5038186;28;20449;-70
2022/12/01 00:34:05;;;;;;;78.45;30.60;;;6.00;99.90;;;;;;5034253;28;20021;-70
2022/12/01 00:36:31;;;;;;;76.07;29.33;;;6.00;99.90;;;;;;5029988;28;20026;-68
2022/12/01 00:38:57;;;;;;;79.82;29.90;;;6.00;99.90;;;;;;5033881;28;20487;-69
2022/12/01 00:41:24;;;;;;;78.35;28.90;;;6.00;99.90;;;;;;5031002;28;20041;-69
2022/12/01 00:43:50;;;;;;;85.13;32.20;;;6.00;99.90;;;;;;5033651;28;20053;-69
2022/12/01 00:46:17;;;;;;;81.70;29.35;;;6.00;99.90;;;;;;5033742;28;20495;-69
2022/12/01 00:48:42;;;;;;;80.65;31.27;;;6.10;99.90;;;;;;5034185;28;20100;-70
2022/12/01 00:51:08;;;;;;;83.40;30.85;;;6.10;99.90;;;;;;5033930;28;20116;-68
2022/12/01 00:53:33;;;;;;;91.75;33.35;;;6.10;99.90;;;;;;5034580;28;20101;-68
2022/12/01 00:55:59;;;;;;;79.75;31.95;;;6.10;99.90;;;;;;5033722;28;20048;-68
2022/12/01 00:58:25;;;;;;;85.85;29.33;;;6.10;99.90;;;;;;5034088;28;20373;-68
2022/12/01 01:01:00;;;;;;;80.63;32.05;;;6.20;99.90;;;;;;5033460;28;20036;-68
2022/12/01 01:03:27;;;;;;;80.20;28.55;;;6.20;99.90;;;;;;5033893;28;20030;-68
2022/12/01 01:05:53;;;;;;;78.05;30.45;;;6.20;99.90;;;;;;5033678;28;20033;-68
2022/12/01 01:08:18;;;;;;;79.75;30.63;;;6.20;99.90;;;;;;5030011;28;20187;-68
2022/12/01 01:10:46;;;;;;;78.70;28.95;;;6.30;99.90;;;;;;5031360;28;20084;-68
2022/12/01 01:13:12;;;;;;;88.10;29.33;;;6.20;99.90;;;;;;5036314;28;20025;-68
2022/12/01 01:15:39;;;;;;;70.72;28.58;;;6.20;99.90;;;;;;5035353;28;20488;-68
2022/12/01 01:18:05;;;;;;;79.65;28.65;;;6.20;99.90;;;;;;5033886;28;20075;-68
2022/12/01 01:20:31;;;;;;;75.85;30.58;;;6.20;99.90;;;;;;5034003;28;20037;-68
2022/12/01 01:22:56;;;;;;;77.03;31.33;;;6.20;99.90;;;;;;5033717;28;20021;-68
2022/12/01 01:25:22;;;;;;;82.45;32.08;;;6.20;99.90;;;;;;5028067;28;20022;-68
2022/12/01 01:27:49;;;;;;;77.15;29.92;;;6.20;99.90;;;;;;5028227;28;20032;-68
2022/12/01 01:30:15;;;;;;;76.97;29.70;;;6.10;99.90;;;;;;5030247;28;20025;-68
2022/12/01 01:32:40;;;;;;;74.28;30.08;;;6.20;99.90;;;;;;5033448;28;20155;-68
2022/12/01 01:35:07;;;;;;;74.22;28.52;;;6.10;99.90;;;;;;5033096;28;20027;-68
2022/12/01 01:37:32;;;;;;;72.57;30.30;;;6.20;99.90;;;;;;5033779;28;20518;-68
2022/12/01 01:39:58;;;;;;;73.28;28.25;;;6.20;99.90;;;;;;5032830;28;20025;-68
2022/12/01 01:42:23;;;;;;;75.93;29.73;;;6.20;99.90;;;;;;5028016;28;20040;-68
2022/12/01 01:44:54;;;;;;;77.68;30.02;;;6.20;99.90;;;;;;5032646;28;20045;-68
2022/12/01 01:47:29;;;;;;;79.85;28.45;;;6.20;99.90;;;;;;5033118;28;20152;-68
2022/12/01 01:49:57;;;;;;;77.32;29.20;;;6.30;99.90;;;;;;5033829;28;20469;-68
2022/12/01 01:52:23;;;;;;;81.72;29.77;;;6.30;99.90;;;;;;5033100;28;20022;-68
2022/12/01 01:54:52;;;;;;;73.65;28.35;;;6.30;99.90;;;;;;5032659;28;20036;-68
2022/12/01 01:57:29;;;;;;;79.82;30.25;;;6.30;99.90;;;;;;5033675;28;20030;-68
2022/12/01 02:00:06;;;;;;;70.72;29.15;;;6.30;99.90;;;;;;5021402;28;20033;-68
2022/12/01 02:02:32;;;;;;;81.72;30.55;;;6.40;99.90;;;;;;5032989;28;20025;-68
2022/12/01 02:05:01;;;;;;;70.35;29.17;;;6.40;99.90;;;;;;5032811;28;20095;-68
2022/12/01 02:07:27;;;;;;;80.60;30.73;;;6.40;99.90;;;;;;5032924;28;20052;-68
2022/12/01 02:09:54;;;;;;;77.18;29.20;;;6.30;99.90;;;;;;5033024;28;20365;-68
2022/12/01 02:12:48;;;;;;;79.65;28.08;;;6.20;99.90;;;;;;5032512;28;20104;-68
2022/12/01 02:15:24;;;;;;;78.35;30.98;;;6.20;99.90;;;;;;5028593;28;20044;-69
2022/12/01 02:18:08;;;;;;;79.88;28.73;;;6.10;99.90;;;;;;5032702;28;20036;-68
2022/12/01 02:21:03;;;;;;;72.55;27.83;;;6.00;99.90;;;;;;5032919;28;20025;-68
2022/12/01 02:24:05;;;;;;;75.10;28.85;;;6.00;99.90;;;;;;5028745;28;20041;-68
2022/12/01 02:26:49;;;;;;;;;;;5.90;99.90;;;;;;5032813;28;20065;-68
2022/12/01 02:29:56;;;;;;;71.60;27.67;;;5.90;99.90;;;;;;5032352;28;19908;-68
2022/12/01 02:32:55;;;;;;;77.18;29.30;;;5.80;99.90;;;;;;5038980;28;20026;-68
2022/12/01 02:35:41;;;;;;;72.35;27.77;;;5.80;99.90;;;;;;5025875;28;20610;-68
2022/12/01 02:38:06;;;;;;;77.45;28.25;;;5.80;99.90;;;;;;5004631;28;20045;-71
2022/12/01 02:40:38;;;;;;;75.45;27.83;;;5.70;99.90;;;;;;5031780;28;20108;-68
2022/12/01 02:43:11;;;;;;;83.65;28.95;;;5.70;99.90;;;;;;5025123;28;20017;-68
2022/12/01 02:45:49;;;;;;;79.00;29.77;;;5.60;99.90;;;;;;5031844;28;20056;-71
2022/12/01 02:48:38;;;;;;;80.20;29.88;;;5.60;99.90;;;;;;5029307;28;20050;-68
2022/12/01 02:51:12;;;;;;;81.03;29.13;;;5.60;99.90;;;;;;5019518;28;20022;-70
2022/12/01 02:53:38;;;;;;;75.88;29.23;;;5.50;99.90;;;;;;5015644;28;20450;-70
2022/12/01 02:56:08;;;;;;;84.40;29.67;;;5.50;99.90;;;;;;5031774;28;20061;-67
2022/12/01 02:58:34;;;;;;;84.93;30.13;;;5.50;99.90;;;;;;5031757;28;20030;-71
2022/12/01 03:01:19;;;;;;;78.05;27.67;;;5.40;99.90;;;;;;5032282;28;20036;-70
2022/12/01 03:03:54;;;;;;;80.72;29.17;;;5.40;99.90;;;;;;5032000;28;20029;-69
2022/12/01 03:06:36;;;;;;;70.82;27.38;;;5.30;99.90;;;;;;5031587;28;20186;-69
2022/12/01 03:09:26;;;;;;;83.10;29.35;;;5.30;99.90;;;;;;5025885;28;21013;-70
2022/12/01 03:12:14;;;;;;;81.07;29.80;;;5.20;99.90;;;;;;5024907;28;20025;-70
2022/12/01 03:15:24;;;;;;;85.20;29.95;;;5.20;99.90;;;;;;5048728;28;20483;-70
2022/12/01 03:17:58;;;;;;;81.55;30.00;;;5.20;99.90;;;;;;5029853;28;20025;-70
2022/12/01 03:20:39;;;;;;;88.70;30.80;;;5.20;99.90;;;;;;5027605;28;20045;-69
2022/12/01 03:23:11;;;;;;;81.03;29.83;;;5.20;99.90;;;;;;5022916;28;20069;-69
2022/12/01 03:25:40;;;;;;;81.35;28.60;;;5.20;99.90;;;;;;5044526;28;20124;-68
2022/12/01 03:28:10;;;;;;;84.43;29.85;;;5.10;99.90;;;;;;5046339;28;20031;-69
2022/12/01 03:30:36;;;;;;;80.32;30.23;;;5.10;99.90;;;;;;5051929;28;20025;-70
2022/12/01 03:33:17;;;;;;;78.43;29.02;;;5.10;99.90;;;;;;5047302;28;20133;-70
2022/12/01 03:35:58;;;;;;;81.80;28.60;;;5.20;99.90;;;;;;5042732;28;20056;-70
2022/12/01 03:38:26;;;;;;;83.03;28.77;;;5.10;99.90;;;;;;5050300;28;20044;-70
2022/12/01 03:41:00;;;;;;;96.20;31.38;;;5.20;99.90;;;;;;5023176;28;20025;-69
2022/12/01 03:43:33;;;;;;;95.80;30.83;;;5.20;99.90;;;;;;5047488;28;20454;-69
2022/12/01 03:46:28;;;;;;;97.03;33.28;;;5.20;99.90;;;;;;5048468;28;20030;-70
2022/12/01 03:48:54;;;;;;;77.55;30.65;;;5.20;99.90;;;;;;5023527;28;20060;-69
2022/12/01 03:51:38;;;;;;;88.43;31.10;;;5.20;99.90;;;;;;5048332;28;20056;-71
2022/12/01 03:54:31;;;;;;;92.95;30.70;;;5.10;99.90;;;;;;5047989;28;20028;-68
2022/12/01 03:57:03;;;;;;;91.20;30.25;;;5.10;99.90;;;;;;5024328;28;20021;-69
2022/12/01 03:59:30;;;;;;;97.05;31.38;;;5.10;99.90;;;;;;5046695;28;20477;-69
2022/12/01 04:01:56;;;;;;;91.68;29.50;;;5.10;99.90;;;;;;5048180;28;20023;-68
2022/12/01 04:04:22;;;;;;;91.40;29.75;;;5.00;99.90;;;;;;5039218;28;20033;-69
2022/12/01 04:06:49;;;;;;;99.32;32.95;;;5.10;99.90;;;;;;5051772;28;20076;-69
2022/12/01 04:09:16;;;;;;;94.40;31.73;;;5.00;99.90;;;;;;5042130;28;20045;-71
2022/12/01 04:14:26;;;;;;;98.07;31.73;;;5.00;99.90;;;;;;5037443;28;20032;-68
2022/12/01 04:16:51;;;;;;;100.75;30.92;;;5.00;99.90;;;;;;5022642;28;20013;-70
2022/12/01 04:19:17;;;;;;;90.63;29.92;;;5.00;99.90;;;;;;5055238;28;20464;-68
2022/12/01 04:21:44;;;;;;;95.72;30.45;;;5.00;99.90;;;;;;5044826;28;20044;-70
2022/12/01 04:24:12;;;;;;;100.07;30.95;;;5.00;99.90;;;;;;5049387;28;20536;-68
2022/12/01 04:26:37;;;;;;;93.15;31.30;;;5.00;99.90;;;;;;5038207;28;20461;-69
2022/12/01 04:29:06;;;;;;;92.90;32.45;;;5.00;99.90;;;;;;5049582;28;20029;-68
2022/12/01 04:31:33;;;;;;;89.50;31.35;;;4.90;99.90;;;;;;5042231;28;20445;-70
2022/12/01 04:33:59;;;;;;;94.55;30.83;;;4.90;99.90;;;;;;5050317;28;20029;-71
2022/12/01 04:36:25;;;;;;;85.53;29.70;;;4.90;99.90;;;;;;5055408;28;20021;-70
2022/12/01 04:38:51;;;;;;;89.65;30.48;;;5.00;99.90;;;;;;5048260;28;20032;-68
2022/12/01 04:41:17;;;;;;;96.68;31.60;;;5.00;99.90;;;;;;5054574;28;20025;-68
2022/12/01 04:43:43;;;;;;;95.30;30.80;;;5.00;99.90;;;;;;5043861;28;20434;-68
2022/12/01 04:46:10;;;;;;;273.08;47.13;;;5.00;99.90;;;;;;5049172;28;20087;-68
2022/12/01 04:48:37;;;;;;;96.90;30.73;;;5.00;99.90;;;;;;5038064;28;20034;-71
2022/12/01 04:51:06;;;;;;;88.68;30.15;;;5.00;99.90;;;;;;5047506;28;20517;-68
2022/12/01 04:53:32;;;;;;;89.40;29.90;;;5.00;99.90;;;;;;5040784;28;20017;-68
2022/12/01 04:55:59;;;;;;;89.50;32.10;;;5.00;99.90;;;;;;5044679;28;20369;-69
2022/12/01 04:58:29;;;;;;;87.63;30.95;;;5.00;99.90;;;;;;5030527;28;20048;-68
2022/12/01 05:00:59;;;;;;;87.93;28.80;;;5.00;99.90;;;;;;5035868;28;20028;-69
2022/12/01 05:03:25;;;;;;;86.38;30.30;;;4.90;99.90;;;;;;5046052;28;20068;-69
2022/12/01 05:06:07;;;;;;;73.18;27.50;;;4.90;99.90;;;;;;5039404;28;20030;-69
2022/12/01 05:08:33;;;;;;;89.78;30.23;;;4.90;99.90;;;;;;5050736;28;20017;-69
2022/12/01 05:10:59;;;;;;;85.35;30.75;;;4.90;99.90;;;;;;5039058;28;20021;-67
2022/12/01 05:13:25;;;;;;;85.07;28.20;;;4.90;99.90;;;;;;5045548;28;20021;-68
2022/12/01 05:15:51;;;;;;;75.00;29.27;;;4.90;99.90;;;;;;5046013;28;20414;-68
2022/12/01 05:18:16;;;;;;;93.95;30.25;;;5.00;99.90;;;;;;5039290;28;20028;-68
2022/12/01 05:20:57;;;;;;;87.25;29.33;;;5.00;99.90;;;;;;5050325;28;20040;-69
2022/12/01 05:23:28;;;;;;;80.75;29.25;;;5.10;99.90;;;;;;5042105;28;20048;-68
2022/12/01 05:25:54;;;;;;;89.93;30.63;;;5.10;99.90;;;;;;5042172;28;20122;-69
2022/12/01 05:28:21;;;;;;;87.38;30.90;;;5.10;99.90;;;;;;5049556;28;20583;-68
2022/12/01 05:30:48;;;;;;;80.90;29.10;;;5.20;99.90;;;;;;5037594;28;20040;-68
2022/12/01 05:33:13;;;;;;;87.82;32.30;;;5.20;99.90;;;;;;5047110;28;20017;-68
2022/12/01 05:35:39;;;;;;;109.20;33.28;;;5.30;99.90;;;;;;5043723;28;20746;-68
2022/12/01 05:38:05;;;;;;;84.47;29.40;;;5.30;99.90;;;;;;5041603;28;20421;-68
2022/12/01 05:40:30;;;;;;;98.38;34.85;;;5.40;99.90;;;;;;5050574;28;20051;-68
2022/12/01 05:42:57;;;;;;;86.28;30.92;;;5.40;99.90;;;;;;5046920;28;20052;-68
2022/12/01 05:45:23;;;;;;;117.65;32.92;;;5.40;99.90;;;;;;5052018;28;20095;-68
2022/12/01 05:47:49;;;;;;;94.45;30.17;;;5.50;99.90;;;;;;5042454;28;20105;-71
2022/12/01 05:50:15;;;;;;;97.05;33.22;;;5.50;99.90;;;;;;5048588;28;20103;-68
2022/12/01 05:52:40;;;;;;;94.40;33.15;;;5.60;99.90;;;;;;5036834;28;20497;-69
2022/12/01 05:55:06;;;;;;;92.95;32.20;;;5.60;99.90;;;;;;5048022;28;20028;-70
2022/12/01 05:57:33;;;;;;;87.32;32.50;;;5.60;99.90;;;;;;5042801;28;20071;-69
2022/12/01 05:59:59;;;;;;;101.18;32.63;;;5.60;99.90;;;;;;5048574;28;20036;-69
2022/12/01 06:02:28;;;;;;;93.68;31.67;;;5.70;99.90;;;;;;5043110;28;20458;-69
2022/12/01 06:04:53;;;;;;;99.65;30.75;;;5.70;99.90;;;;;;5030742;28;20088;-71
2022/12/01 06:07:34;;;;;;;92.28;32.60;;;5.80;99.90;;;;;;5045457;28;20138;-70
2022/12/01 06:10:01;;;;;;;100.73;32.00;;;5.80;99.90;;;;;;5044953;28;20037;-70
2022/12/01 06:12:29;;;;;;;89.55;32.22;;;5.80;99.90;;;;;;5036592;28;20255;-68
2022/12/01 06:14:55;;;;;;;90.95;31.45;;;5.80;99.90;;;;;;5049445;28;20017;-67
2022/12/01 06:17:20;;;;;;;88.22;30.95;;;5.80;99.90;;;;;;5034420;28;20030;-68
2022/12/01 06:19:46;;;;;;;84.25;29.98;;;5.90;99.90;;;;;;5036470;28;20024;-67
2022/12/01 06:22:12;;;;;;;88.75;29.55;;;5.90;99.90;;;;;;5038550;28;20507;-69
2022/12/01 06:24:38;;;;;;;77.60;28.65;;;5.90;99.90;;;;;;5049518;28;20112;-69
2022/12/01 06:27:03;;;;;;;89.97;29.95;;;6.00;99.90;;;;;;5038439;28;20029;-69
2022/12/01 06:29:29;;;;;;;88.68;29.63;;;6.00;99.90;;;;;;5044089;28;20025;-70
2022/12/01 06:31:55;;;;;;;82.32;30.05;;;6.10;99.90;;;;;;5045117;28;20033;-69
2022/12/01 06:34:20;;;;;;;86.07;31.58;;;6.10;99.90;;;;;;5034521;28;20043;-68
2022/12/01 06:36:46;;;;;;;93.30;31.88;;;6.20;99.90;;;;;;5037060;28;20024;-69
2022/12/01 06:39:15;;;;;;;86.15;30.48;;;6.30;99.90;;;;;;5050619;28;20021;-70
2022/12/01 06:41:40;;;;;;;80.05;30.95;;;6.30;99.90;;;;;;5042879;28;20534;-68
2022/12/01 06:44:06;;;;;;;87.25;31.92;;;6.40;99.90;;;;;;5046414;28;20072;-69
2022/12/01 06:46:31;;;;;;;78.95;28.65;;;6.40;99.90;;;;;;5036261;28;20069;-69
2022/12/01 06:48:57;;;;;;;80.35;29.33;;;6.40;99.90;;;;;;5048336;28;20029;-69
2022/12/01 06:51:22;;;;;;;89.43;31.42;;;6.40;99.90;;;;;;5040592;28;20096;-69
2022/12/01 06:53:53;;;;;;;84.47;30.95;;;6.40;99.90;;;;;;5039610;28;20397;-69
2022/12/01 06:56:19;;;;;;;83.22;29.73;;;6.40;99.90;;;;;;5036104;28;20013;-69
2022/12/01 06:58:45;;;;;;;78.35;29.88;;;6.40;99.90;;;;;;5048979;28;20334;-69
2022/12/01 07:01:11;;;;;;;87.30;30.92;;;6.40;99.90;;;;;;5038655;28;20342;-71
2022/12/01 07:03:44;;;;;;;77.70;29.50;;;6.40;99.90;;;;;;5042273;28;20043;-68
2022/12/01 07:06:10;;;;;;;85.05;30.73;;;6.40;99.90;;;;;;5047041;28;20035;-68
2022/12/01 07:08:36;;;;;;;85.68;29.48;;;6.40;99.90;;;;;;5031804;28;20033;-69
2022/12/01 07:11:04;;;;;;;89.95;31.45;;;6.40;99.90;;;;;;5047425;28;20028;-69
2022/12/01 07:13:32;;;;;;;85.65;31.40;;;6.40;99.90;;;;;;5039968;28;20031;-69
2022/12/01 07:15:58;;;;;;;85.30;30.80;;;6.50;99.90;;;;;;5047735;28;20051;-69
2022/12/01 07:18:23;;;;;;;90.68;30.40;;;6.50;99.90;;;;;;5040237;28;20032;-69
2022/12/01 07:20:49;;;;;;;77.22;29.05;;;6.50;99.90;;;;;;5052708;28;20021;-69
2022/12/01 07:23:15;;;;;;;83.80;29.73;;;6.50;99.90;;;;;;5043456;28;20028;-69
2022/12/01 07:25:40;;;;;;;90.68;31.60;;;6.50;99.90;;;;;;5046223;28;20029;-69
2022/12/01 07:28:06;;;;;;;83.32;30.20;;;6.40;99.90;;;;;;5046388;28;20045;-69
2022/12/01 07:30:31;;;;;;;84.35;29.42;;;6.40;99.90;;;;;;5054157;28;20025;-70
2022/12/01 07:32:58;;;;;;;83.22;27.95;;;6.50;99.90;;;;;;5044164;28;20039;-71
2022/12/01 07:35:23;;;;;;;81.45;29.42;;;6.50;99.90;;;;;;5056372;28;20449;-69
2022/12/01 07:37:55;;;;;;;75.80;28.02;;;6.40;99.90;;;;;;5044437;28;20030;-69
2022/12/01 07:40:32;;;;;;;84.55;27.75;;;6.40;99.90;;;;;;5052030;28;20115;-70
2022/12/01 07:42:58;;;;;;;77.50;27.00;;;6.50;99.90;;;;;;5024737;28;20490;-69
2022/12/01 07:45:23;;;;;;;84.97;29.80;;;6.50;99.90;;;;;;5047670;28;20116;-71
2022/12/01 07:47:52;;;;;;;80.65;29.75;;;6.50;99.90;;;;;;5047260;28;20420;-68
2022/12/01 07:50:18;;;;;;;80.95;29.65;;;6.60;99.90;;;;;;5052562;28;20096;-66
2022/12/01 07:52:43;;;;;;;77.20;29.67;;;6.60;99.90;;;;;;5038688;28;20097;-69
2022/12/01 07:55:09;;;;;;;84.88;30.23;;;6.70;99.90;;;;;;5048661;28;20068;-70
2022/12/01 07:57:34;;;;;;;78.80;28.48;;;6.70;99.90;;;;;;5040056;28;20029;-69
2022/12/01 08:00:00;;;;;;;73.85;29.10;;;6.70;99.90;;;;;;5049083;28;20104;-69
2022/12/01 08:02:26;;;;;;;79.00;30.63;;;6.80;99.90;;;;;;5038891;28;20053;-68
2022/12/01 08:04:51;;;;;;;76.72;29.52;;;6.80;99.90;;;;;;5043471;28;20490;-69
2022/12/01 08:07:17;;;;;;;80.25;28.40;;;6.80;99.90;;;;;;5048436;28;20033;-69
2022/12/01 08:09:43;;;;;;;75.25;27.67;;;6.90;99.90;;;;;;5046304;28;20025;-67
2022/12/01 08:12:09;;;;;;;76.13;28.25;;;6.90;99.90;;;;;;5042244;28;20045;-68
2022/12/01 08:14:34;;;;;;;78.30;30.13;;;6.90;99.90;;;;;;5045646;28;20021;-69
2022/12/01 08:17:00;;;;;;;74.95;27.88;;;7.00;99.90;;;;;;5051019;28;20037;-65
2022/12/01 08:19:28;;;;;;;71.18;28.85;;;7.00;99.90;;;;;;5034856;28;20036;-68
2022/12/01 08:21:53;;;;;;;70.03;28.05;;;7.00;99.90;;;;;;5035065;28;20422;-68
2022/12/01 08:24:19;;;;;;;74.45;28.90;;;7.10;99.90;;;;;;5034202;28;20022;-68
2022/12/01 08:26:44;;;;;;;76.57;29.98;;;7.10;99.90;;;;;;5033754;28;20559;-68
2022/12/01 08:29:10;;;;;;;73.22;30.13;;;7.10;99.90;;;;;;5034014;28;20033;-66
2022/12/01 08:31:36;;;;;;;72.80;29.40;;;7.20;99.90;;;;;;5035152;28;20044;-67
2022/12/01 08:34:05;;;;;;;81.45;28.95;;;7.30;99.90;;;;;;5034780;28;20417;-66
2022/12/01 08:36:31;;;;;;;79.00;29.30;;;7.30;99.90;;;;;;5035412;28;20040;-67
2022/12/01 08:38:57;;;;;;;74.78;29.70;;;7.30;99.90;;;;;;5034925;28;20029;-67
2022/12/01 08:41:23;;;;;;;71.28;27.92;;;7.40;99.90;;;;;;5034517;28;20029;-67
2022/12/01 08:43:49;;;;;;;76.05;30.35;;;7.40;99.90;;;;;;5031483;28;20041;-67
2022/12/01 08:46:15;;;;;;;90.85;30.95;;;7.40;99.90;;;;;;5029823;28;20032;-67
2022/12/01 08:48:40;;;;;;;73.00;30.02;;;7.50;99.90;;;;;;5022830;28;20049;-67
2022/12/01 08:51:09;;;;;;;70.60;28.10;;;7.50;99.90;;;;;;5034959;28;20104;-67
2022/12/01 08:53:36;;;;;;;82.38;28.60;;;7.60;99.90;;;;;;5026914;28;20072;-67
2022/12/01 08:56:09;;;;;;;69.32;27.30;;;7.70;99.90;;;;;;5034242;28;20021;-67
2022/12/01 08:58:34;;;;;;;68.65;26.35;;;7.80;99.90;;;;;;5029785;28;20042;-67
2022/12/01 09:01:06;;;;;;;69.57;28.92;;;7.80;99.90;;;;;;5018248;28;20247;-67
2022/12/01 09:03:32;;;;;;;74.25;26.48;;;7.80;99.90;;;;;;5034971;28;20022;-66
2022/12/01 09:06:07;;;;;;;73.30;29.45;;;7.90;99.90;;;;;;5033626;28;20045;-67
2022/12/01 09:08:34;;;;;;;69.45;28.33;;;8.00;99.90;;;;;;5034269;28;20059;-67
2022/12/01 09:11:02;;;;;;;68.72;28.67;;;8.00;99.90;;;;;;5034401;28;20124;-67
2022/12/01 09:13:28;;;;;;;64.40;27.10;;;8.10;99.90;;;;;;5034461;28;20105;-67
2022/12/01 09:15:56;;;;;;;72.85;28.15;;;8.20;99.90;;;;;;5034508;28;20025;-67
2022/12/01 09:18:21;;;;;;;63.15;27.33;;;8.20;99.90;;;;;;5032126;28;20029;-67
2022/12/01 09:20:47;;;;;;;57.33;23.35;;;8.30;99.90;;;;;;5033798;28;20025;-67
2022/12/01 09:23:12;;;;;;;66.95;26.98;;;8.30;99.90;;;;;;5044319;28;20072;-67
2022/12/01 09:25:38;;;;;;;67.28;26.60;;;8.40;99.90;;;;;;5035476;28;20032;-68
2022/12/01 09:28:03;;;;;;;65.95;27.83;;;8.60;99.90;;;;;;5042739;28;20100;-67
2022/12/01 09:30:29;;;;;;;66.00;25.15;;;8.70;99.90;;;;;;5033539;28;20021;-68
2022/12/01 09:32:54;;;;;;;65.40;27.25;;;8.80;99.90;;;;;;5025125;28;20029;-67
2022/12/01 09:35:20;;;;;;;63.00;25.88;;;8.80;99.90;;;;;;5034109;28;20242;-68
2022/12/01 09:37:45;;;;;;;61.95;25.45;;;8.80;99.90;;;;;;5033742;28;20045;-68
2022/12/01 09:40:14;;;;;;;60.88;26.73;;;8.90;99.90;;;;;;5034048;28;20026;-67
2022/12/01 09:42:41;;;;;;;58.72;22.85;;;8.90;99.90;;;;;;5033853;28;20036;-67
2022/12/01 09:45:17;;;;;;;62.33;24.13;;;9.00;99.90;;;;;;5034049;28;20065;-67
2022/12/01 09:47:45;;;;;;;61.40;25.52;;;9.20;99.90;;;;;;5033465;28;20511;-68
2022/12/01 09:50:15;;;;;;;62.42;26.00;;;9.40;99.90;;;;;;5033755;28;20077;-67
2022/12/01 09:52:50;;;;;;;60.30;25.70;;;9.70;99.90;;;;;;5034087;28;20029;-68
2022/12/01 09:55:18;;;;;;;58.17;25.30;;;10.10;99.90;;;;;;5034040;28;20026;-68
2022/12/01 09:57:49;;;;;;;57.05;25.42;;;10.50;99.90;;;;;;5033177;28;20075;-68
2022/12/01 10:00:27;;;;;;;49.42;22.40;;;11.00;99.90;;;;;;5026234;28;20052;-68
2022/12/01 10:03:04;;;;;;;54.03;21.85;;;11.40;99.90;;;;;;5013839;28;20088;-68
2022/12/01 10:05:48;;;;;;;54.60;25.33;;;11.50;99.90;;;;;;5013843;28;20018;-68
2022/12/01 10:08:17;;;;;;;50.50;24.52;;;11.20;99.90;;;;;;5013771;28;20075;-68
2022/12/01 10:10:46;;;;;;;54.63;25.17;;;10.90;99.90;;;;;;5013412;28;20052;-68
2022/12/01 10:13:17;;;;;;;56.13;23.75;;;10.70;99.90;;;;;;5013573;28;20025;-67
2022/12/01 10:15:52;;;;;;;49.92;23.00;;;10.90;99.90;;;;;;5013836;28;20104;-68
2022/12/01 10:18:49;;;;;;;48.78;23.45;;;11.20;99.90;;;;;;5040534;28;20025;-68
2022/12/01 10:21:39;;;;;;;49.92;23.45;;;11.70;99.90;;;;;;5033357;28;20040;-68
2022/12/01 10:24:53;;;;;;;45.10;22.17;;;12.40;99.90;;;;;;5032701;28;20017;-68
2022/12/01 10:27:46;;;;;;;46.20;21.48;;;13.00;99.90;;;;;;5037151;28;20045;-68
2022/12/01 10:30:15;;;;;;;45.25;23.50;;;13.40;99.90;;;;;;5043766;28;20495;-70
2022/12/01 10:32:59;;;;;;;47.80;22.13;;;13.60;99.90;;;;;;5038922;28;20516;-68
2022/12/01 10:35:34;;;;;;;46.63;21.52;;;13.90;99.90;;;;;;5036150;28;20029;-67
2022/12/01 10:38:03;;;;;;;45.15;23.60;;;14.30;99.90;;;;;;5033065;28;20127;-69
2022/12/01 10:40:33;;;;;;;41.58;20.30;;;14.50;99.90;;;;;;5037292;28;20056;-67
2022/12/01 10:42:59;;;;;;;38.45;19.98;;;14.80;99.90;;;;;;5052229;28;20056;-70
2022/12/01 10:45:29;;;;;;;42.90;21.38;;;15.10;99.90;;;;;;5052926;28;20456;-70
2022/12/01 10:48:14;;;;;;;45.85;22.23;;;15.40;99.90;;;;;;5052070;28;20044;-70
2022/12/01 10:50:44;;;;;;;43.25;21.52;;;15.60;99.90;;;;;;5052709;28;20087;-68
2022/12/01 10:53:22;;;;;;;40.90;22.05;;;15.80;99.90;;;;;;5042016;28;20028;-69
2022/12/01 10:55:50;;;;;;;39.88;20.70;;;15.90;99.90;;;;;;5032943;28;20159;-68
2022/12/01 10:58:18;;;;;;;41.70;21.85;;;16.00;99.90;;;;;;5041983;28;20421;-69
2022/12/01 11:00:57;;;;;;;40.83;20.73;;;16.10;99.90;;;;;;5036482;28;20030;-68
2022/12/01 11:03:27;;;;;;;40.10;19.90;;;16.20;99.90;;;;;;5026885;28;20021;-66
2022/12/01 11:05:56;;;;;;;38.05;20.73;;;16.30;99.90;;;;;;5032087;28;20083;-67
2022/12/01 11:08:29;;;;;;;37.35;18.85;;;16.40;99.90;;;;;;5040075;28;20029;-67
2022/12/01 11:10:55;;;;;;;40.30;20.08;;;16.50;99.90;;;;;;5052872;28;20365;-67
2022/12/01 11:13:28;;;;;;;41.53;21.15;;;16.40;99.90;;;;;;5052370;28;20025;-67
2022/12/01 11:15:59;;;;;;;40.30;19.88;;;16.30;99.90;;;;;;5052617;28;20090;-67
2022/12/01 11:18:34;;;;;;;40.10;21.30;;;16.30;99.90;;;;;;5052206;28;20036;-67
2022/12/01 11:21:24;;;;;;;36.97;17.67;;;16.40;99.90;;;;;;5052575;28;20096;-67
2022/12/01 11:23:51;;;;;;;40.08;19.27;;;16.50;99.60;;;;;;5052159;28;20547;-67
2022/12/01 11:26:33;;;;;;;35.75;18.65;;;16.40;99.70;;;;;;5038633;28;20045;-67
2022/12/01 11:29:01;;;;;;;34.92;18.48;;;16.20;99.20;;;;;;5032657;28;20076;-67
2022/12/01 11:31:47;;;;;;;30.05;14.85;;;15.80;99.70;;;;;;5032536;28;20034;-67
2022/12/01 11:34:24;;;;;;;35.08;16.80;;;15.60;99.40;;;;;;5032319;28;20030;-67
2022/12/01 11:36:53;;;;;;;34.85;18.33;;;15.50;99.90;;;;;;5034132;28;20452;-67
2022/12/01 11:39:35;;;;;;;36.08;18.85;;;15.60;99.90;;;;;;5033526;28;20071;-67
2022/12/01 11:42:05;;;;;;;36.72;18.33;;;15.80;99.90;;;;;;5012561;28;20030;-67
2022/12/01 11:44:33;;;;;;;32.15;15.40;;;16.10;99.90;;;;;;5027676;28;20117;-67
2022/12/01 11:47:13;;;;;;;34.78;17.48;;;16.30;99.10;;;;;;5032010;28;20033;-67
2022/12/01 11:49:41;;;;;;;27.23;14.25;;;16.30;99.40;;;;;;5032620;28;20026;-67
2022/12/01 11:52:29;;;;;;;30.90;15.10;;;16.20;98.80;;;;;;5032435;28;20061;-67
2022/12/01 11:55:15;;;;;;;28.38;12.70;;;15.90;98.90;;;;;;5032448;28;20113;-67
2022/12/01 11:57:47;;;;;;;28.67;12.70;;;15.70;98.80;;;;;;5031734;28;20044;-67
2022/12/01 12:00:22;;;;;;;27.20;14.02;;;15.60;98.40;;;;;;5053083;28;20356;-67
2022/12/01 12:03:17;;;;;;;31.80;14.57;;;15.40;98.60;;;;;;5043410;28;20025;-67
2022/12/01 12:05:52;;;;;;;29.25;14.70;;;15.20;99.70;;;;;;5035306;28;20025;-66
2022/12/01 12:08:39;;;;;;;30.33;14.25;;;15.10;99.90;;;;;;5018539;28;20088;-67
2022/12/01 12:11:18;;;;;;;27.55;12.82;;;15.10;99.50;;;;;;5033932;28;20047;-67
2022/12/01 12:14:12;;;;;;;29.13;14.35;;;15.00;99.10;;;;;;5035530;28;20172;-67
2022/12/01 12:17:13;;;;;;;24.98;11.60;;;14.80;99.70;;;;;;5034307;28;20021;-69
2022/12/01 12:20:00;;;;;;;27.45;13.07;;;14.60;99.10;;;;;;5033706;28;20381;-67
2022/12/01 12:22:50;;;;;;;26.60;13.00;;;14.40;99.90;;;;;;5035311;28;20028;-67
2022/12/01 12:25:16;;;;;;;26.38;11.85;;;14.30;99.80;;;;;;5033444;28;20029;-68
2022/12/01 12:27:55;;;;;;;23.67;10.45;;;14.20;99.90;;;;;;5030954;28;20092;-67
2022/12/01 12:30:26;;;;;;;28.55;12.65;;;14.20;99.80;;;;;;5035115;28;20432;-67
2022/12/01 12:33:29;;;;;;;29.65;13.98;;;14.20;99.90;;;;;;5034735;28;20029;-67
2022/12/01 12:36:16;;;;;;;24.15;11.38;;;14.10;99.90;;;;;;5016056;28;20088;-67
2022/12/01 12:38:57;;;;;;;24.05;11.18;;;14.10;99.90;;;;;;5016765;28;20026;-67
2022/12/01 12:41:37;;;;;;;25.80;11.55;;;14.10;99.90;;;;;;5034997;28;20029;-67
2022/12/01 12:44:24;;;;;;;25.08;12.27;;;14.00;99.90;;;;;;5035125;28;20053;-67
2022/12/01 12:46:59;;;;;;;25.23;11.52;;;14.00;99.90;;;;;;5033649;28;20029;-68
2022/12/01 12:49:49;;;;;;;25.35;10.73;;;13.90;99.90;;;;;;5035155;28;20474;-69
2022/12/01 12:52:24;;;;;;;26.73;12.80;;;13.80;99.60;;;;;;5034632;28;20033;-69
2022/12/01 12:55:04;;;;;;;27.48;12.80;;;13.60;99.90;;;;;;5033962;28;20466;-67
2022/12/01 12:57:47;;;;;;;26.55;11.57;;;13.60;99.90;;;;;;5033574;28;20033;-67
2022/12/01 13:00:22;;;;;;;24.52;11.05;;;13.60;99.90;;;;;;5034729;28;20029;-67
2022/12/01 13:03:09;;;;;;;27.38;12.25;;;13.50;99.90;;;;;;5035050;28;20025;-67